createdAt,value
2019-02-09T00:00:58.305Z,606.63
2019-02-09T00:06:02.071Z,446.33
2019-02-09T00:11:06.814Z,440.67
2019-02-09T00:16:10.698Z,698.63
2019-02-09T00:21:14.503Z,404.73
2019-02-09T00:26:18.470Z,521.07
2019-02-09T00:31:22.567Z,1411.00
2019-02-09T00:36:26.329Z,338.07
2019-02-09T00:41:30.368Z,271.23
2019-02-09T00:46:34.218Z,186.17
2019-02-09T00:51:39.913Z,186.70
2019-02-09T00:56:43.848Z,385.67
2019-02-09T01:01:47.922Z,244.77
2019-02-09T01:06:52.111Z,244.97
2019-02-09T01:11:56.049Z,122.60
2019-02-09T01:17:00.275Z,479.47
2019-02-09T01:22:04.515Z,288.03
2019-02-09T01:27:08.479Z,142.77
2019-02-09T01:32:12.263Z,452.30
2019-02-09T01:37:16.030Z,140.03
2019-02-09T01:42:20.159Z,166.90
2019-02-09T01:47:24.374Z,670.07
2019-02-09T01:52:28.633Z,128.33
2019-02-09T01:57:35.488Z,404.50
2019-02-09T02:02:39.353Z,133.40
2019-02-09T02:07:43.154Z,1235.10
2019-02-09T02:12:46.935Z,159.27
2019-02-09T02:17:51.121Z,474.73
2019-02-09T02:22:55.029Z,181.07
2019-02-09T02:27:58.873Z,280.23
2019-02-09T02:33:02.704Z,173.07
2019-02-09T02:38:07.002Z,305.73
2019-02-09T02:43:11.130Z,296.30
2019-02-09T02:48:14.908Z,163.47
2019-02-09T02:53:18.735Z,448.03
2019-02-09T02:58:22.438Z,421.83
2019-02-09T03:03:26.673Z,143.70
2019-02-09T03:08:31.502Z,131.67
2019-02-09T03:13:35.432Z,130.63
2019-02-09T03:18:39.258Z,127.37
2019-02-09T03:23:43.355Z,269.80
2019-02-09T03:28:47.447Z,290.50
2019-02-09T03:33:51.637Z,129.50
2019-02-09T03:38:55.349Z,256.97
2019-02-09T03:43:59.566Z,142.43
2019-02-09T03:49:03.338Z,1295.93
2019-02-09T03:54:07.211Z,250.93
2019-02-09T03:59:11.164Z,111.60
2019-02-09T04:04:15.381Z,128.77
2019-02-09T04:09:19.132Z,842.93
2019-02-09T04:14:22.897Z,590.57
2019-02-09T04:19:27.257Z,108.50
2019-02-09T04:24:31.387Z,149.37
2019-02-09T04:29:35.637Z,323.23
2019-02-09T04:34:39.407Z,149.17
2019-02-09T04:39:43.460Z,119.67
2019-02-09T04:44:47.714Z,128.97
2019-02-09T04:49:51.566Z,119.63
2019-02-09T04:54:55.723Z,209.00
2019-02-09T04:59:59.627Z,168.17
2019-02-09T05:05:04.011Z,239.53
2019-02-09T05:10:09.968Z,183.63
2019-02-09T05:15:15.194Z,180.60
2019-02-09T05:20:24.672Z,122.60
2019-02-09T05:25:38.766Z,519.30
2019-02-09T05:30:42.642Z,129.20
2019-02-09T05:35:46.595Z,104.07
2019-02-09T05:40:50.378Z,114.77
2019-02-09T05:45:54.164Z,701.30
2019-02-09T05:50:58.656Z,156.90
2019-02-09T05:56:02.499Z,199.57
2019-02-09T06:01:07.204Z,161.57
2019-02-09T06:06:11.635Z,520.13
2019-02-09T06:11:15.480Z,508.13
2019-02-09T06:16:19.507Z,665.63
2019-02-09T06:21:26.348Z,460.77
2019-02-09T06:26:30.225Z,334.23
2019-02-09T06:31:40.710Z,777.67
2019-02-09T06:36:51.712Z,739.63
2019-02-09T06:41:56.387Z,476.50
2019-02-09T06:47:00.816Z,555.00
2019-02-09T06:52:07.762Z,665.63
2019-02-09T06:57:11.804Z,1999.90
2019-02-09T07:02:15.901Z,1203.73
2019-02-09T07:07:23.678Z,1928.97
2019-02-09T07:12:29.363Z,1999.90
2019-02-09T07:17:33.668Z,1941.27
2019-02-09T07:22:37.560Z,1995.30
2019-02-09T07:27:41.765Z,1925.83
2019-02-09T07:32:45.680Z,1999.90
2019-02-09T07:37:49.920Z,1883.73
2019-02-09T07:42:53.851Z,1999.90
2019-02-09T07:47:57.796Z,1802.80
2019-02-09T07:53:02.135Z,1999.90
2019-02-09T07:58:06.134Z,1999.90
2019-02-09T08:03:10.339Z,1993.63
2019-02-09T08:08:14.074Z,1999.90
2019-02-09T08:13:17.906Z,1990.07
2019-02-09T08:18:21.869Z,1999.90
2019-02-09T08:23:25.864Z,1999.90
2019-02-09T08:28:31.419Z,1999.90
2019-02-09T08:33:35.299Z,1999.90
2019-02-09T08:38:39.068Z,1999.90
2019-02-09T08:43:42.901Z,1796.13
2019-02-09T08:48:46.777Z,1892.70
2019-02-09T08:53:50.521Z,1969.50
2019-02-09T08:58:54.570Z,1999.90
2019-02-09T09:03:58.664Z,1999.90
2019-02-09T09:09:02.600Z,1999.90
2019-02-09T09:14:11.261Z,1999.90
2019-02-09T09:19:16.490Z,1999.90
2019-02-09T09:24:23.784Z,1813.63
2019-02-09T09:29:28.295Z,1999.90
2019-02-09T09:34:32.319Z,1578.67
2019-02-09T09:39:37.235Z,1999.90
2019-02-09T09:44:41.539Z,1999.90
2019-02-09T09:49:48.619Z,1945.67
2019-02-09T09:54:53.268Z,1972.67
2019-02-09T09:59:58.664Z,1482.60
2019-02-09T10:05:03.760Z,1999.90
2019-02-09T10:10:09.651Z,1999.90
2019-02-09T10:15:15.912Z,1999.90
2019-02-09T10:20:22.148Z,1999.90
2019-02-09T10:25:26.569Z,1999.90
2019-02-09T10:30:30.702Z,1999.90
2019-02-09T10:35:35.756Z,1792.70
2019-02-09T10:40:41.964Z,1942.33
2019-02-09T10:45:54.501Z,1999.90
2019-02-09T10:50:58.580Z,1999.90
2019-02-09T10:56:02.606Z,1999.90
2019-02-09T11:01:17.659Z,1999.90
2019-02-09T11:06:23.530Z,1999.90
2019-02-09T11:11:28.840Z,1999.90
2019-02-09T11:16:38.230Z,1999.90
2019-02-09T11:21:45.957Z,1911.60
2019-02-09T11:26:49.884Z,1999.90
2019-02-09T11:31:59.439Z,1999.90
2019-02-09T11:37:06.467Z,1999.90
2019-02-09T11:42:10.828Z,1834.03
2019-02-09T11:47:15.379Z,1999.90
2019-02-09T11:52:22.200Z,1999.90
2019-02-09T11:57:26.279Z,1999.90
2019-02-09T12:02:35.520Z,1999.90
2019-02-09T12:07:40.411Z,466.07
2019-02-09T12:12:48.480Z,1942.53
2019-02-09T12:17:53.194Z,1999.90
2019-02-09T12:23:00.933Z,1999.90
2019-02-09T12:28:06.709Z,1999.90
2019-02-09T12:33:23.023Z,1999.90
2019-02-09T12:38:26.200Z,1999.90
2019-02-09T12:43:30.497Z,1999.90
2019-02-09T12:48:34.401Z,1999.90
2019-02-09T12:53:38.444Z,1999.90
2019-02-09T12:58:42.761Z,1999.90
2019-02-09T13:03:53.094Z,1999.90
2019-02-09T13:08:57.185Z,1999.90
2019-02-09T13:14:01.356Z,1999.90
2019-02-09T13:19:06.313Z,1477.53
2019-02-09T13:24:10.788Z,252.73
2019-02-09T13:29:27.715Z,691.37
2019-02-09T13:34:31.518Z,1413.03
2019-02-09T13:39:35.627Z,151.33
2019-02-09T13:44:39.584Z,384.00
2019-02-09T13:49:54.355Z,410.70
2019-02-09T13:55:00.699Z,191.13
2019-02-09T14:00:23.322Z,175.83
2019-02-09T14:05:27.713Z,188.63
2019-02-09T14:10:31.577Z,203.67
2019-02-09T14:15:35.710Z,156.87
2019-02-09T14:20:42.328Z,167.33
2019-02-09T14:25:46.229Z,181.93
2019-02-09T14:30:50.200Z,250.90
2019-02-09T14:35:54.277Z,244.00
2019-02-09T14:40:58.107Z,1534.17
2019-02-09T14:46:02.016Z,1999.90
2019-02-09T14:51:06.460Z,1999.90
2019-02-09T14:56:10.379Z,1999.90
2019-02-09T15:01:14.304Z,1999.90
2019-02-09T15:06:21.562Z,1999.90
2019-02-09T15:11:25.611Z,1999.90
2019-02-09T15:16:45.027Z,1953.13
2019-02-09T15:21:51.776Z,1999.90
2019-02-09T15:26:56.227Z,1435.50
2019-02-09T15:32:03.769Z,1406.50
2019-02-09T15:37:07.772Z,1670.53
2019-02-09T15:42:11.677Z,1430.60
2019-02-09T15:47:15.715Z,1249.70
2019-02-09T15:52:24.129Z,1430.57
2019-02-09T15:57:31.491Z,1920.03
2019-02-09T16:02:36.167Z,1593.00
2019-02-09T16:07:40.367Z,1963.67
2019-02-09T16:12:44.243Z,1999.90
2019-02-09T16:17:48.064Z,1999.90
2019-02-09T16:22:52.066Z,1999.90
2019-02-09T16:27:55.930Z,1560.77
2019-02-09T16:33:09.355Z,1564.40
2019-02-09T16:38:14.103Z,1519.33
2019-02-09T16:43:18.055Z,1116.87
2019-02-09T16:48:21.845Z,645.57
2019-02-09T16:53:25.778Z,827.40
2019-02-09T16:58:29.753Z,1307.03
2019-02-09T17:03:33.599Z,427.90
2019-02-09T17:08:37.660Z,472.40
2019-02-09T17:13:41.452Z,476.17
2019-02-09T17:18:46.528Z,436.37
2019-02-09T17:23:50.459Z,1434.93
2019-02-09T17:28:54.229Z,291.90
2019-02-09T17:33:58.296Z,299.13
2019-02-09T17:39:02.375Z,153.47
2019-02-09T17:44:06.420Z,186.33
2019-02-09T17:49:18.125Z,124.07
2019-02-09T17:54:22.172Z,466.60
2019-02-09T17:59:26.077Z,1201.77
2019-02-09T18:04:30.025Z,1999.90
2019-02-09T18:09:39.649Z,1999.90
2019-02-09T18:14:43.419Z,1999.90
2019-02-09T18:19:46.836Z,1999.90
2019-02-09T18:24:51.195Z,1999.90
2019-02-09T18:29:55.246Z,1988.83
2019-02-09T18:34:59.123Z,1999.90
2019-02-09T18:40:03.853Z,1999.90
2019-02-09T18:45:09.064Z,1385.00
2019-02-09T18:50:15.576Z,1999.90
2019-02-09T18:55:20.972Z,1611.77
2019-02-09T19:00:33.412Z,1714.90
2019-02-09T19:05:37.423Z,1999.90
2019-02-09T19:10:41.866Z,1999.90
2019-02-09T19:15:46.247Z,1999.90
2019-02-09T19:20:53.150Z,1938.20
2019-02-09T19:25:57.640Z,1999.90
2019-02-09T19:31:04.943Z,1870.63
2019-02-09T19:36:11.839Z,1712.73
2019-02-09T19:41:15.602Z,1523.47
2019-02-09T19:46:19.512Z,1702.67
2019-02-09T19:51:23.415Z,1563.30
2019-02-09T19:56:27.297Z,1830.10
2019-02-09T20:01:31.543Z,1961.23
2019-02-09T20:06:35.310Z,1999.90
2019-02-09T20:11:39.227Z,1581.27
2019-02-09T20:16:44.464Z,1999.90
2019-02-09T20:21:48.624Z,1999.90
2019-02-09T20:26:53.098Z,1999.90
2019-02-09T20:31:57.424Z,1978.70
2019-02-09T20:37:04.551Z,1999.90
2019-02-09T20:42:08.920Z,1999.90
2019-02-09T20:47:17.559Z,1999.90
2019-02-09T20:52:21.895Z,1999.90
2019-02-09T20:57:26.160Z,1999.90
2019-02-09T21:02:30.512Z,1996.87
2019-02-09T21:07:34.869Z,1999.90
2019-02-09T21:12:39.599Z,1788.17
2019-02-09T21:17:43.895Z,1601.93
2019-02-09T21:22:54.843Z,1496.40
2019-02-09T21:27:58.989Z,1822.67
2019-02-09T21:33:15.035Z,1920.73
2019-02-09T21:38:19.203Z,1700.00
2019-02-09T21:43:23.688Z,1669.17
2019-02-09T21:48:28.075Z,1296.17
2019-02-09T21:53:32.082Z,1782.53
2019-02-09T21:58:36.166Z,1110.10
2019-02-09T22:03:43.677Z,1716.70
2019-02-09T22:08:47.577Z,1492.70
2019-02-09T22:13:54.917Z,1164.40
2019-02-09T22:19:04.445Z,1032.53
2019-02-09T22:24:08.808Z,1474.43
2019-02-09T22:29:13.244Z,1643.37
2019-02-09T22:34:17.323Z,1818.40
2019-02-09T22:39:24.732Z,1160.40
2019-02-09T22:44:31.759Z,1480.73
2019-02-09T22:49:35.673Z,1493.10
2019-02-09T22:54:39.888Z,1226.93
2019-02-09T22:59:43.867Z,1590.90
2019-02-09T23:05:04.034Z,1999.90
2019-02-09T23:10:12.806Z,740.17
2019-02-09T23:15:21.025Z,780.67
2019-02-09T23:20:29.823Z,1626.03
2019-02-09T23:25:33.811Z,926.23
2019-02-09T23:30:38.343Z,787.97
2019-02-09T23:35:45.881Z,896.53
2019-02-09T23:40:54.326Z,545.53
2019-02-09T23:45:58.533Z,645.97
2019-02-09T23:51:04.576Z,1049.63
2019-02-09T23:56:20.134Z,1999.90
